Etusivu
METAR-TAF:

METAR-TAF

Lentoasemat :

Amman, Jordania

Leveyspiiri: 31-59N, Pituuspiiri: 035-59E, korkeus merenpinnasta: 767 m

Tämänhetkinen sää

Tämä raportti tehtiin 51 minuuttia sitten, kello 09.00 UTC
Tuuli 10 kn pohjoisen/luoteesta
Lämpötila 22°C
Kosteus 31%
Ilmanpaine 1016 hPa
Näkyvyys: 5000 m
usvaa

METAR: OJAM 220900Z 34010KT 5000 HZ NSC 22/04 Q1016 NOSIG

Aika: 12:51 (09:51 UTC)

Sääennuste

Tämä raportti tehtiin 5 tuntia ja 6 minuuttia sitten, kello 04.45 UTC
Ennuste voimassa 22. päivästä klo 06 UTC - 23. päivään klo 12 UTC
Tuuli 12 kn lännestä/luoteesta
Näkyvyys: 5000 m
Muutamia pilviä 3000 ft:n korkeudessa
usvaa
Ajoittain
23. päivästä klo 02 UTC - 23. päivään klo 06 UTC
Tuuli 2 kn eri suunnista
Näkyvyys: 3000 m
utua

TAF: OJAM 220445Z 2206/2312 30012KT 5000 HZ FEW030 TEMPO 2302/2306 VRB02KT 3000 BR

Säähavainnot ja -ennusteet yli 4000 lentoasemalta (METAR- ja TAF-raportit).

Käytössä olevat sääasemat on merkitty karttaan keltaisilla ja punaisilla pisteillä.

Aseta hiiri pisteen päälle nähdäksesi sääaseman nimen.

Klikkaa sitten nähdäksesi säähavainnot ja -ennusteet.

Kartan vaihtaminen: klikkaa mustalla rastilla varustettuja vihreitä pisteitä, niin voit zoomata sisään; viivalla varustettua vihreää pistettä, niin voit zoomata ulos tai vihreitä nuolia, niin pääset viereisille kartoille.


METAR-TAF: